sensor_id;sensor_type;location;lat;lon;timestamp;temperature;humidity
37268;DHT22;23154;52.542;13.362;2023-10-31T00:01:49;12.50;99.90
37268;DHT22;23154;52.542;13.362;2023-10-31T00:04:15;12.50;99.90
37268;DHT22;23154;52.542;13.362;2023-10-31T00:06:41;12.40;99.90
37268;DHT22;23154;52.542;13.362;2023-10-31T00:09:08;12.40;99.90
37268;DHT22;23154;52.542;13.362;2023-10-31T00:11:34;12.40;99.90
37268;DHT22;23154;52.542;13.362;2023-10-31T00:14:00;12.40;99.90
37268;DHT22;23154;52.542;13.362;2023-10-31T00:16:26;12.30;99.90
37268;DHT22;23154;52.542;13.362;2023-10-31T00:18:52;12.30;99.90
37268;DHT22;23154;52.542;13.362;2023-10-31T00:21:19;12.30;99.90
37268;DHT22;23154;52.542;13.362;2023-10-31T00:23:45;12.40;99.90
37268;DHT22;23154;52.542;13.362;2023-10-31T00:26:11;12.40;99.90
37268;DHT22;23154;52.542;13.362;2023-10-31T00:28:37;12.40;99.90
37268;DHT22;23154;52.542;13.362;2023-10-31T00:31:03;12.30;99.90
37268;DHT22;23154;52.542;13.362;2023-10-31T00:33:30;12.30;99.90
37268;DHT22;23154;52.542;13.362;2023-10-31T00:35:56;12.30;99.90
37268;DHT22;23154;52.542;13.362;2023-10-31T00:38:23;12.20;99.90
37268;DHT22;23154;52.542;13.362;2023-10-31T00:40:48;12.20;99.90
37268;DHT22;23154;52.542;13.362;2023-10-31T00:43:14;12.20;99.90
37268;DHT22;23154;52.542;13.362;2023-10-31T00:45:42;12.20;99.90
37268;DHT22;23154;52.542;13.362;2023-10-31T00:48:11;12.20;99.90
37268;DHT22;23154;52.542;13.362;2023-10-31T00:50:37;12.50;99.90
37268;DHT22;23154;52.542;13.362;2023-10-31T00:53:03;12.40;99.90
37268;DHT22;23154;52.542;13.362;2023-10-31T00:55:28;12.40;99.90
37268;DHT22;23154;52.542;13.362;2023-10-31T00:57:54;12.30;99.90
37268;DHT22;23154;52.542;13.362;2023-10-31T01:00:22;12.50;99.90
37268;DHT22;23154;52.542;13.362;2023-10-31T01:02:48;12.30;99.90
37268;DHT22;23154;52.542;13.362;2023-10-31T01:05:13;12.30;99.90
37268;DHT22;23154;52.542;13.362;2023-10-31T01:07:39;12.40;99.90
37268;DHT22;23154;52.542;13.362;2023-10-31T01:10:06;12.40;99.90
37268;DHT22;23154;52.542;13.362;2023-10-31T01:12:32;12.40;99.90
37268;DHT22;23154;52.542;13.362;2023-10-31T01:14:58;12.40;99.90
37268;DHT22;23154;52.542;13.362;2023-10-31T01:17:24;12.30;99.90
37268;DHT22;23154;52.542;13.362;2023-10-31T01:19:49;12.30;99.90
37268;DHT22;23154;52.542;13.362;2023-10-31T01:22:15;12.20;99.90
37268;DHT22;23154;52.542;13.362;2023-10-31T01:24:40;12.00;99.90
37268;DHT22;23154;52.542;13.362;2023-10-31T01:27:06;12.00;99.90
37268;DHT22;23154;52.542;13.362;2023-10-31T01:29:31;11.90;99.90
37268;DHT22;23154;52.542;13.362;2023-10-31T01:31:57;11.90;99.90
37268;DHT22;23154;52.542;13.362;2023-10-31T01:34:24;11.80;99.90
37268;DHT22;23154;52.542;13.362;2023-10-31T01:36:50;11.80;99.90
37268;DHT22;23154;52.542;13.362;2023-10-31T01:39:15;11.80;99.90
37268;DHT22;23154;52.542;13.362;2023-10-31T01:41:41;11.70;99.90
37268;DHT22;23154;52.542;13.362;2023-10-31T01:44:08;11.70;99.90
37268;DHT22;23154;52.542;13.362;2023-10-31T01:46:34;11.80;99.90
37268;DHT22;23154;52.542;13.362;2023-10-31T01:49:00;11.70;99.90
37268;DHT22;23154;52.542;13.362;2023-10-31T01:51:26;11.70;99.90
37268;DHT22;23154;52.542;13.362;2023-10-31T01:53:52;11.70;99.90
37268;DHT22;23154;52.542;13.362;2023-10-31T01:56:19;11.70;99.90
37268;DHT22;23154;52.542;13.362;2023-10-31T01:58:46;11.70;99.90
37268;DHT22;23154;52.542;13.362;2023-10-31T02:01:13;11.70;99.90
37268;DHT22;23154;52.542;13.362;2023-10-31T02:03:39;11.70;99.90
37268;DHT22;23154;52.542;13.362;2023-10-31T02:06:05;11.90;99.90
37268;DHT22;23154;52.542;13.362;2023-10-31T02:08:31;11.80;99.90
37268;DHT22;23154;52.542;13.362;2023-10-31T02:10:56;11.80;99.90
37268;DHT22;23154;52.542;13.362;2023-10-31T02:13:22;11.80;99.90
37268;DHT22;23154;52.542;13.362;2023-10-31T02:15:48;12.00;99.90
37268;DHT22;23154;52.542;13.362;2023-10-31T02:18:14;12.10;99.90
37268;DHT22;23154;52.542;13.362;2023-10-31T02:20:41;12.00;99.90
37268;DHT22;23154;52.542;13.362;2023-10-31T02:23:06;12.00;99.90
37268;DHT22;23154;52.542;13.362;2023-10-31T02:25:32;11.90;99.90
37268;DHT22;23154;52.542;13.362;2023-10-31T02:27:58;11.90;99.90
37268;DHT22;23154;52.542;13.362;2023-10-31T02:30:24;12.00;99.90
37268;DHT22;23154;52.542;13.362;2023-10-31T02:32:50;12.00;99.90
37268;DHT22;23154;52.542;13.362;2023-10-31T02:35:16;12.00;99.90
37268;DHT22;23154;52.542;13.362;2023-10-31T02:37:46;11.80;99.90
37268;DHT22;23154;52.542;13.362;2023-10-31T02:40:12;11.90;99.90
37268;DHT22;23154;52.542;13.362;2023-10-31T02:42:38;11.70;99.90
37268;DHT22;23154;52.542;13.362;2023-10-31T02:45:04;11.70;99.90
37268;DHT22;23154;52.542;13.362;2023-10-31T02:47:30;11.60;99.90
37268;DHT22;23154;52.542;13.362;2023-10-31T02:49:55;11.50;99.90
37268;DHT22;23154;52.542;13.362;2023-10-31T02:52:21;11.50;99.90
37268;DHT22;23154;52.542;13.362;2023-10-31T02:54:47;11.40;99.90
37268;DHT22;23154;52.542;13.362;2023-10-31T02:57:13;11.40;99.90
37268;DHT22;23154;52.542;13.362;2023-10-31T02:59:38;11.40;99.90
37268;DHT22;23154;52.542;13.362;2023-10-31T03:02:04;11.40;99.90
37268;DHT22;23154;52.542;13.362;2023-10-31T03:04:30;11.40;99.90
37268;DHT22;23154;52.542;13.362;2023-10-31T03:06:55;11.40;99.90
37268;DHT22;23154;52.542;13.362;2023-10-31T03:09:21;11.30;99.90
37268;DHT22;23154;52.542;13.362;2023-10-31T03:11:47;11.30;99.90
37268;DHT22;23154;52.542;13.362;2023-10-31T03:14:12;11.30;99.90
37268;DHT22;23154;52.542;13.362;2023-10-31T03:16:38;11.30;99.90
37268;DHT22;23154;52.542;13.362;2023-10-31T03:19:04;11.20;99.90
37268;DHT22;23154;52.542;13.362;2023-10-31T03:21:30;11.30;99.90
37268;DHT22;23154;52.542;13.362;2023-10-31T03:23:56;11.20;99.90
37268;DHT22;23154;52.542;13.362;2023-10-31T03:26:22;11.20;99.90
37268;DHT22;23154;52.542;13.362;2023-10-31T03:28:48;11.20;99.90
37268;DHT22;23154;52.542;13.362;2023-10-31T03:31:14;11.20;99.90
37268;DHT22;23154;52.542;13.362;2023-10-31T03:33:41;11.20;99.90
37268;DHT22;23154;52.542;13.362;2023-10-31T03:36:09;11.20;99.90
37268;DHT22;23154;52.542;13.362;2023-10-31T03:38:35;11.20;99.90
37268;DHT22;23154;52.542;13.362;2023-10-31T03:41:02;11.20;99.90
37268;DHT22;23154;52.542;13.362;2023-10-31T03:43:27;11.30;99.90
37268;DHT22;23154;52.542;13.362;2023-10-31T03:45:54;11.30;99.90
37268;DHT22;23154;52.542;13.362;2023-10-31T03:48:21;11.30;99.90
37268;DHT22;23154;52.542;13.362;2023-10-31T03:50:47;11.30;99.90
37268;DHT22;23154;52.542;13.362;2023-10-31T03:53:12;11.30;99.90
37268;DHT22;23154;52.542;13.362;2023-10-31T03:55:38;11.30;99.90
37268;DHT22;23154;52.542;13.362;2023-10-31T03:58:04;11.30;99.90
37268;DHT22;23154;52.542;13.362;2023-10-31T04:00:31;11.30;99.90
37268;DHT22;23154;52.542;13.362;2023-10-31T04:02:56;11.30;99.90
37268;DHT22;23154;52.542;13.362;2023-10-31T04:05:22;11.30;99.90
37268;DHT22;23154;52.542;13.362;2023-10-31T04:07:51;11.30;99.90
37268;DHT22;23154;52.542;13.362;2023-10-31T04:10:18;11.20;99.90
37268;DHT22;23154;52.542;13.362;2023-10-31T04:12:44;11.20;99.90
37268;DHT22;23154;52.542;13.362;2023-10-31T04:15:09;11.20;99.90
37268;DHT22;23154;52.542;13.362;2023-10-31T04:17:35;11.20;99.90
37268;DHT22;23154;52.542;13.362;2023-10-31T04:20:01;11.20;99.90
37268;DHT22;23154;52.542;13.362;2023-10-31T04:22:27;11.20;99.90
37268;DHT22;23154;52.542;13.362;2023-10-31T04:24:53;11.20;99.90
37268;DHT22;23154;52.542;13.362;2023-10-31T04:27:18;11.20;99.90
37268;DHT22;23154;52.542;13.362;2023-10-31T04:29:45;11.20;99.90
37268;DHT22;23154;52.542;13.362;2023-10-31T04:32:10;11.20;99.90
37268;DHT22;23154;52.542;13.362;2023-10-31T04:34:36;11.20;99.90
37268;DHT22;23154;52.542;13.362;2023-10-31T04:37:02;11.20;99.90
37268;DHT22;23154;52.542;13.362;2023-10-31T04:39:27;11.20;99.90
37268;DHT22;23154;52.542;13.362;2023-10-31T04:41:53;11.30;99.90
37268;DHT22;23154;52.542;13.362;2023-10-31T04:44:19;11.20;99.90
37268;DHT22;23154;52.542;13.362;2023-10-31T04:46:44;11.20;99.90
37268;DHT22;23154;52.542;13.362;2023-10-31T04:49:10;11.30;99.90
37268;DHT22;23154;52.542;13.362;2023-10-31T04:51:36;11.30;99.90
37268;DHT22;23154;52.542;13.362;2023-10-31T04:54:03;11.30;99.90
37268;DHT22;23154;52.542;13.362;2023-10-31T04:56:28;11.20;99.90
37268;DHT22;23154;52.542;13.362;2023-10-31T04:58:54;11.30;99.90
37268;DHT22;23154;52.542;13.362;2023-10-31T05:01:19;11.30;99.90
37268;DHT22;23154;52.542;13.362;2023-10-31T05:03:45;11.30;99.90
37268;DHT22;23154;52.542;13.362;2023-10-31T05:06:11;11.30;99.90
37268;DHT22;23154;52.542;13.362;2023-10-31T05:08:37;11.30;99.90
37268;DHT22;23154;52.542;13.362;2023-10-31T05:11:02;11.30;99.90
37268;DHT22;23154;52.542;13.362;2023-10-31T05:13:28;11.30;99.90
37268;DHT22;23154;52.542;13.362;2023-10-31T05:15:54;11.40;99.90
37268;DHT22;23154;52.542;13.362;2023-10-31T05:18:20;11.40;99.90
37268;DHT22;23154;52.542;13.362;2023-10-31T05:20:45;11.40;99.90
37268;DHT22;23154;52.542;13.362;2023-10-31T05:23:11;11.40;99.90
37268;DHT22;23154;52.542;13.362;2023-10-31T05:25:37;11.40;99.90
37268;DHT22;23154;52.542;13.362;2023-10-31T05:28:03;11.40;99.90
37268;DHT22;23154;52.542;13.362;2023-10-31T05:30:29;11.40;99.90
37268;DHT22;23154;52.542;13.362;2023-10-31T05:32:54;11.40;99.90
37268;DHT22;23154;52.542;13.362;2023-10-31T05:35:21;11.40;99.90
37268;DHT22;23154;52.542;13.362;2023-10-31T05:37:46;11.40;99.90
37268;DHT22;23154;52.542;13.362;2023-10-31T05:40:12;11.50;99.90
37268;DHT22;23154;52.542;13.362;2023-10-31T05:42:39;11.40;99.90
37268;DHT22;23154;52.542;13.362;2023-10-31T05:45:05;11.50;99.90
37268;DHT22;23154;52.542;13.362;2023-10-31T05:47:31;11.50;99.90
37268;DHT22;23154;52.542;13.362;2023-10-31T05:49:56;11.50;99.90
37268;DHT22;23154;52.542;13.362;2023-10-31T05:52:23;11.50;99.90
37268;DHT22;23154;52.542;13.362;2023-10-31T05:54:48;11.50;99.90
37268;DHT22;23154;52.542;13.362;2023-10-31T05:57:14;11.50;99.90
37268;DHT22;23154;52.542;13.362;2023-10-31T05:59:41;11.50;99.90
37268;DHT22;23154;52.542;13.362;2023-10-31T06:02:06;11.50;99.90
37268;DHT22;23154;52.542;13.362;2023-10-31T06:04:32;11.60;99.90
37268;DHT22;23154;52.542;13.362;2023-10-31T06:06:58;11.60;99.90
37268;DHT22;23154;52.542;13.362;2023-10-31T06:09:24;11.60;99.90
37268;DHT22;23154;52.542;13.362;2023-10-31T06:11:49;11.60;99.90
37268;DHT22;23154;52.542;13.362;2023-10-31T06:14:15;11.60;99.90
37268;DHT22;23154;52.542;13.362;2023-10-31T06:16:41;11.70;99.90
37268;DHT22;23154;52.542;13.362;2023-10-31T06:19:07;11.70;99.90
37268;DHT22;23154;52.542;13.362;2023-10-31T06:21:33;11.70;99.90
37268;DHT22;23154;52.542;13.362;2023-10-31T06:23:59;11.70;99.90
37268;DHT22;23154;52.542;13.362;2023-10-31T06:26:24;11.70;99.90
37268;DHT22;23154;52.542;13.362;2023-10-31T06:28:50;11.80;99.90
37268;DHT22;23154;52.542;13.362;2023-10-31T06:31:15;11.80;99.90
37268;DHT22;23154;52.542;13.362;2023-10-31T06:33:41;11.80;99.90
37268;DHT22;23154;52.542;13.362;2023-10-31T06:36:07;11.80;99.90
37268;DHT22;23154;52.542;13.362;2023-10-31T06:38:33;11.90;99.90
37268;DHT22;23154;52.542;13.362;2023-10-31T06:40:59;11.90;99.90
37268;DHT22;23154;52.542;13.362;2023-10-31T06:43:25;11.90;99.90
37268;DHT22;23154;52.542;13.362;2023-10-31T06:45:51;12.00;99.90
37268;DHT22;23154;52.542;13.362;2023-10-31T06:48:17;11.90;99.90
37268;DHT22;23154;52.542;13.362;2023-10-31T06:50:42;12.00;99.90
37268;DHT22;23154;52.542;13.362;2023-10-31T06:53:08;12.00;99.90
37268;DHT22;23154;52.542;13.362;2023-10-31T06:55:33;12.00;99.90
37268;DHT22;23154;52.542;13.362;2023-10-31T06:57:59;12.10;99.90
37268;DHT22;23154;52.542;13.362;2023-10-31T07:00:25;12.10;99.90
37268;DHT22;23154;52.542;13.362;2023-10-31T07:02:50;12.10;99.90
37268;DHT22;23154;52.542;13.362;2023-10-31T07:05:16;12.20;99.90
37268;DHT22;23154;52.542;13.362;2023-10-31T07:07:42;12.20;99.90
37268;DHT22;23154;52.542;13.362;2023-10-31T07:10:08;12.30;99.90
37268;DHT22;23154;52.542;13.362;2023-10-31T07:12:34;12.30;99.90
37268;DHT22;23154;52.542;13.362;2023-10-31T07:14:59;12.30;99.90
37268;DHT22;23154;52.542;13.362;2023-10-31T07:17:25;12.30;99.90
37268;DHT22;23154;52.542;13.362;2023-10-31T07:19:51;12.30;99.90
37268;DHT22;23154;52.542;13.362;2023-10-31T07:22:17;12.30;99.90
37268;DHT22;23154;52.542;13.362;2023-10-31T07:24:43;12.30;99.90
37268;DHT22;23154;52.542;13.362;2023-10-31T07:27:09;12.30;99.90
37268;DHT22;23154;52.542;13.362;2023-10-31T07:29:35;12.30;99.90
37268;DHT22;23154;52.542;13.362;2023-10-31T07:32:00;12.30;99.90
37268;DHT22;23154;52.542;13.362;2023-10-31T07:34:28;12.30;99.90
37268;DHT22;23154;52.542;13.362;2023-10-31T07:36:54;12.30;99.90
37268;DHT22;23154;52.542;13.362;2023-10-31T07:39:20;12.20;99.90
37268;DHT22;23154;52.542;13.362;2023-10-31T07:41:45;12.20;99.90
37268;DHT22;23154;52.542;13.362;2023-10-31T07:44:11;12.30;99.90
37268;DHT22;23154;52.542;13.362;2023-10-31T07:46:37;12.20;99.90
37268;DHT22;23154;52.542;13.362;2023-10-31T07:49:03;12.20;99.90
37268;DHT22;23154;52.542;13.362;2023-10-31T07:51:29;12.20;99.90
37268;DHT22;23154;52.542;13.362;2023-10-31T07:53:54;12.10;99.90
37268;DHT22;23154;52.542;13.362;2023-10-31T07:56:21;12.10;99.90
37268;DHT22;23154;52.542;13.362;2023-10-31T07:58:49;12.10;99.90
37268;DHT22;23154;52.542;13.362;2023-10-31T08:01:17;12.10;99.90
37268;DHT22;23154;52.542;13.362;2023-10-31T08:03:42;12.00;99.90
37268;DHT22;23154;52.542;13.362;2023-10-31T08:06:08;12.00;99.90
37268;DHT22;23154;52.542;13.362;2023-10-31T08:08:34;12.00;99.90
37268;DHT22;23154;52.542;13.362;2023-10-31T08:10:59;12.00;99.90
37268;DHT22;23154;52.542;13.362;2023-10-31T08:13:25;12.00;99.90
37268;DHT22;23154;52.542;13.362;2023-10-31T08:15:51;12.00;99.90
37268;DHT22;23154;52.542;13.362;2023-10-31T08:18:17;12.00;99.90
37268;DHT22;23154;52.542;13.362;2023-10-31T08:20:43;12.10;99.90
37268;DHT22;23154;52.542;13.362;2023-10-31T08:23:11;12.20;99.90
37268;DHT22;23154;52.542;13.362;2023-10-31T08:25:37;12.20;99.90
37268;DHT22;23154;52.542;13.362;2023-10-31T08:28:02;12.20;99.90
37268;DHT22;23154;52.542;13.362;2023-10-31T08:30:28;12.20;99.90
37268;DHT22;23154;52.542;13.362;2023-10-31T08:32:54;12.20;99.90
37268;DHT22;23154;52.542;13.362;2023-10-31T08:35:19;12.20;99.90
37268;DHT22;23154;52.542;13.362;2023-10-31T08:37:45;12.10;99.90
37268;DHT22;23154;52.542;13.362;2023-10-31T08:40:11;12.20;99.90
37268;DHT22;23154;52.542;13.362;2023-10-31T08:42:36;12.30;99.90
37268;DHT22;23154;52.542;13.362;2023-10-31T08:45:02;12.30;99.90
37268;DHT22;23154;52.542;13.362;2023-10-31T08:47:28;12.50;99.90
37268;DHT22;23154;52.542;13.362;2023-10-31T08:49:53;12.50;99.90
37268;DHT22;23154;52.542;13.362;2023-10-31T08:52:19;12.70;99.90
37268;DHT22;23154;52.542;13.362;2023-10-31T08:54:45;12.70;99.90
37268;DHT22;23154;52.542;13.362;2023-10-31T08:57:10;12.60;99.90
37268;DHT22;23154;52.542;13.362;2023-10-31T08:59:36;12.60;99.90
37268;DHT22;23154;52.542;13.362;2023-10-31T09:02:02;12.60;99.90
37268;DHT22;23154;52.542;13.362;2023-10-31T09:04:27;12.60;99.90
37268;DHT22;23154;52.542;13.362;2023-10-31T09:06:53;12.50;99.90
37268;DHT22;23154;52.542;13.362;2023-10-31T09:09:19;12.50;99.90
37268;DHT22;23154;52.542;13.362;2023-10-31T09:11:44;12.50;99.90
37268;DHT22;23154;52.542;13.362;2023-10-31T09:14:10;12.50;99.90
37268;DHT22;23154;52.542;13.362;2023-10-31T09:16:36;12.60;99.90
37268;DHT22;23154;52.542;13.362;2023-10-31T09:19:02;12.70;99.90
37268;DHT22;23154;52.542;13.362;2023-10-31T09:21:27;12.70;99.90
37268;DHT22;23154;52.542;13.362;2023-10-31T09:23:53;12.90;99.90
37268;DHT22;23154;52.542;13.362;2023-10-31T09:26:19;13.00;99.90
37268;DHT22;23154;52.542;13.362;2023-10-31T09:28:45;12.90;99.90
37268;DHT22;23154;52.542;13.362;2023-10-31T09:31:17;12.80;99.90
37268;DHT22;23154;52.542;13.362;2023-10-31T09:33:43;12.80;99.90
37268;DHT22;23154;52.542;13.362;2023-10-31T09:36:09;12.70;99.90
37268;DHT22;23154;52.542;13.362;2023-10-31T09:38:35;12.60;99.90
37268;DHT22;23154;52.542;13.362;2023-10-31T09:41:01;12.50;99.90
37268;DHT22;23154;52.542;13.362;2023-10-31T09:43:27;12.50;99.90
37268;DHT22;23154;52.542;13.362;2023-10-31T09:45:52;12.50;99.90
37268;DHT22;23154;52.542;13.362;2023-10-31T09:48:19;12.60;99.90
37268;DHT22;23154;52.542;13.362;2023-10-31T09:50:46;12.60;99.90
37268;DHT22;23154;52.542;13.362;2023-10-31T09:53:14;12.60;99.90
37268;DHT22;23154;52.542;13.362;2023-10-31T09:55:42;12.60;99.90
37268;DHT22;23154;52.542;13.362;2023-10-31T09:58:08;12.60;99.90
37268;DHT22;23154;52.542;13.362;2023-10-31T10:00:34;12.70;99.90
37268;DHT22;23154;52.542;13.362;2023-10-31T10:03:03;12.80;99.90
37268;DHT22;23154;52.542;13.362;2023-10-31T10:05:31;12.70;99.90
37268;DHT22;23154;52.542;13.362;2023-10-31T10:08:00;12.70;99.90
37268;DHT22;23154;52.542;13.362;2023-10-31T10:10:26;12.80;99.90
37268;DHT22;23154;52.542;13.362;2023-10-31T10:12:52;12.80;99.90
37268;DHT22;23154;52.542;13.362;2023-10-31T10:15:18;12.80;99.90
37268;DHT22;23154;52.542;13.362;2023-10-31T10:17:51;12.90;99.90
37268;DHT22;23154;52.542;13.362;2023-10-31T10:20:17;12.90;99.90
37268;DHT22;23154;52.542;13.362;2023-10-31T10:22:44;12.90;99.90
37268;DHT22;23154;52.542;13.362;2023-10-31T10:25:17;13.10;99.90
37268;DHT22;23154;52.542;13.362;2023-10-31T10:27:46;13.10;99.90
37268;DHT22;23154;52.542;13.362;2023-10-31T10:30:13;13.30;99.90
37268;DHT22;23154;52.542;13.362;2023-10-31T10:32:39;13.30;99.90
37268;DHT22;23154;52.542;13.362;2023-10-31T10:35:06;13.30;99.90
37268;DHT22;23154;52.542;13.362;2023-10-31T10:37:32;13.10;99.90
37268;DHT22;23154;52.542;13.362;2023-10-31T10:39:58;13.00;99.90
37268;DHT22;23154;52.542;13.362;2023-10-31T10:42:45;13.00;99.90
37268;DHT22;23154;52.542;13.362;2023-10-31T10:45:15;13.10;99.90
37268;DHT22;23154;52.542;13.362;2023-10-31T10:47:48;13.20;99.90
37268;DHT22;23154;52.542;13.362;2023-10-31T10:50:15;13.30;99.90
37268;DHT22;23154;52.542;13.362;2023-10-31T10:52:53;13.30;99.90
37268;DHT22;23154;52.542;13.362;2023-10-31T10:55:21;13.30;99.90
37268;DHT22;23154;52.542;13.362;2023-10-31T10:58:03;13.40;99.90
37268;DHT22;23154;52.542;13.362;2023-10-31T11:00:31;13.20;99.90
37268;DHT22;23154;52.542;13.362;2023-10-31T11:02:57;13.20;99.90
37268;DHT22;23154;52.542;13.362;2023-10-31T11:05:24;13.30;99.90
37268;DHT22;23154;52.542;13.362;2023-10-31T11:07:51;13.40;99.90
37268;DHT22;23154;52.542;13.362;2023-10-31T11:10:17;13.60;99.90
37268;DHT22;23154;52.542;13.362;2023-10-31T11:12:43;13.70;99.90
37268;DHT22;23154;52.542;13.362;2023-10-31T11:15:12;13.70;99.90
37268;DHT22;23154;52.542;13.362;2023-10-31T11:17:40;13.80;99.90
37268;DHT22;23154;52.542;13.362;2023-10-31T11:20:09;13.70;99.90
37268;DHT22;23154;52.542;13.362;2023-10-31T11:22:40;13.70;99.90
37268;DHT22;23154;52.542;13.362;2023-10-31T11:25:10;13.70;99.90
37268;DHT22;23154;52.542;13.362;2023-10-31T11:27:37;13.70;99.90
37268;DHT22;23154;52.542;13.362;2023-10-31T11:30:30;13.70;99.90
37268;DHT22;23154;52.542;13.362;2023-10-31T11:32:58;13.60;99.90
37268;DHT22;23154;52.542;13.362;2023-10-31T11:35:24;13.40;99.90
37268;DHT22;23154;52.542;13.362;2023-10-31T11:38:05;13.30;99.90
37268;DHT22;23154;52.542;13.362;2023-10-31T11:40:32;13.20;99.90
37268;DHT22;23154;52.542;13.362;2023-10-31T11:42:58;13.10;99.90
37268;DHT22;23154;52.542;13.362;2023-10-31T11:47:54;13.20;99.90
37268;DHT22;23154;52.542;13.362;2023-10-31T11:50:21;13.20;99.90
37268;DHT22;23154;52.542;13.362;2023-10-31T11:53:08;13.30;99.90
37268;DHT22;23154;52.542;13.362;2023-10-31T11:55:43;13.50;99.90
37268;DHT22;23154;52.542;13.362;2023-10-31T11:58:19;13.60;99.90
37268;DHT22;23154;52.542;13.362;2023-10-31T12:00:46;13.50;99.90
37268;DHT22;23154;52.542;13.362;2023-10-31T12:03:15;13.70;99.90
37268;DHT22;23154;52.542;13.362;2023-10-31T12:05:51;13.80;99.90
37268;DHT22;23154;52.542;13.362;2023-10-31T12:08:34;13.80;99.90
37268;DHT22;23154;52.542;13.362;2023-10-31T12:11:07;13.70;99.90
37268;DHT22;23154;52.542;13.362;2023-10-31T12:13:35;13.50;99.90
37268;DHT22;23154;52.542;13.362;2023-10-31T12:16:01;13.40;99.90
37268;DHT22;23154;52.542;13.362;2023-10-31T12:18:28;13.30;99.90
37268;DHT22;23154;52.542;13.362;2023-10-31T12:20:55;13.20;99.90
37268;DHT22;23154;52.542;13.362;2023-10-31T12:23:21;13.10;99.90
37268;DHT22;23154;52.542;13.362;2023-10-31T12:25:50;13.20;99.90
37268;DHT22;23154;52.542;13.362;2023-10-31T12:28:21;13.20;99.90
37268;DHT22;23154;52.542;13.362;2023-10-31T12:30:48;13.40;99.90
37268;DHT22;23154;52.542;13.362;2023-10-31T12:33:15;13.50;99.90
37268;DHT22;23154;52.542;13.362;2023-10-31T12:35:42;13.50;99.90
37268;DHT22;23154;52.542;13.362;2023-10-31T12:38:11;13.60;99.90
37268;DHT22;23154;52.542;13.362;2023-10-31T12:40:38;13.60;99.90
37268;DHT22;23154;52.542;13.362;2023-10-31T12:43:04;13.40;99.90
37268;DHT22;23154;52.542;13.362;2023-10-31T12:45:30;13.40;99.90
37268;DHT22;23154;52.542;13.362;2023-10-31T12:48:09;13.40;99.90
37268;DHT22;23154;52.542;13.362;2023-10-31T12:50:36;13.40;99.90
37268;DHT22;23154;52.542;13.362;2023-10-31T12:53:09;13.50;99.90
37268;DHT22;23154;52.542;13.362;2023-10-31T12:55:42;13.60;99.90
37268;DHT22;23154;52.542;13.362;2023-10-31T12:58:09;13.60;99.90
37268;DHT22;23154;52.542;13.362;2023-10-31T13:00:45;13.50;99.90
37268;DHT22;23154;52.542;13.362;2023-10-31T13:03:11;13.30;99.90
37268;DHT22;23154;52.542;13.362;2023-10-31T13:05:37;13.20;99.90
37268;DHT22;23154;52.542;13.362;2023-10-31T13:08:13;13.10;99.90
37268;DHT22;23154;52.542;13.362;2023-10-31T13:10:39;13.10;99.90
37268;DHT22;23154;52.542;13.362;2023-10-31T13:13:05;13.10;99.90
37268;DHT22;23154;52.542;13.362;2023-10-31T13:15:31;13.10;99.90
37268;DHT22;23154;52.542;13.362;2023-10-31T13:17:56;13.10;99.90
37268;DHT22;23154;52.542;13.362;2023-10-31T13:20:22;13.00;99.90
37268;DHT22;23154;52.542;13.362;2023-10-31T13:22:48;13.10;99.90
37268;DHT22;23154;52.542;13.362;2023-10-31T13:25:15;13.10;99.90
37268;DHT22;23154;52.542;13.362;2023-10-31T13:27:43;13.30;99.90
37268;DHT22;23154;52.542;13.362;2023-10-31T13:30:10;13.20;99.90
37268;DHT22;23154;52.542;13.362;2023-10-31T13:32:42;13.20;99.90
37268;DHT22;23154;52.542;13.362;2023-10-31T13:35:07;13.20;99.90
37268;DHT22;23154;52.542;13.362;2023-10-31T13:37:36;13.10;99.90
37268;DHT22;23154;52.542;13.362;2023-10-31T13:40:03;13.10;99.90
37268;DHT22;23154;52.542;13.362;2023-10-31T13:42:28;12.90;99.90
37268;DHT22;23154;52.542;13.362;2023-10-31T13:44:54;12.80;99.90
37268;DHT22;23154;52.542;13.362;2023-10-31T13:47:20;12.60;99.90
37268;DHT22;23154;52.542;13.362;2023-10-31T13:49:46;12.50;99.90
37268;DHT22;23154;52.542;13.362;2023-10-31T13:52:12;12.50;99.90
37268;DHT22;23154;52.542;13.362;2023-10-31T13:54:37;12.40;99.90
37268;DHT22;23154;52.542;13.362;2023-10-31T13:57:03;12.30;99.90
37268;DHT22;23154;52.542;13.362;2023-10-31T13:59:29;12.30;99.90
37268;DHT22;23154;52.542;13.362;2023-10-31T14:01:55;12.30;99.90
37268;DHT22;23154;52.542;13.362;2023-10-31T14:04:20;12.20;99.90
37268;DHT22;23154;52.542;13.362;2023-10-31T14:06:47;12.10;99.90
37268;DHT22;23154;52.542;13.362;2023-10-31T14:09:13;12.20;99.90
37268;DHT22;23154;52.542;13.362;2023-10-31T14:11:40;12.10;99.90
37268;DHT22;23154;52.542;13.362;2023-10-31T14:14:06;12.20;99.90
37268;DHT22;23154;52.542;13.362;2023-10-31T14:16:35;12.10;99.90
37268;DHT22;23154;52.542;13.362;2023-10-31T14:19:00;12.20;99.90
37268;DHT22;23154;52.542;13.362;2023-10-31T14:21:28;12.20;99.90
37268;DHT22;23154;52.542;13.362;2023-10-31T14:23:53;12.10;99.90
37268;DHT22;23154;52.542;13.362;2023-10-31T14:26:26;12.10;99.90
37268;DHT22;23154;52.542;13.362;2023-10-31T14:28:52;12.00;99.90
37268;DHT22;23154;52.542;13.362;2023-10-31T14:31:18;11.80;99.90
37268;DHT22;23154;52.542;13.362;2023-10-31T14:33:46;11.50;99.90
37268;DHT22;23154;52.542;13.362;2023-10-31T14:36:14;11.40;99.90
37268;DHT22;23154;52.542;13.362;2023-10-31T14:38:41;11.30;99.90
37268;DHT22;23154;52.542;13.362;2023-10-31T14:41:07;11.10;99.90
37268;DHT22;23154;52.542;13.362;2023-10-31T14:43:33;11.10;99.90
37268;DHT22;23154;52.542;13.362;2023-10-31T14:46:00;11.10;99.90
37268;DHT22;23154;52.542;13.362;2023-10-31T14:48:28;11.00;99.90
37268;DHT22;23154;52.542;13.362;2023-10-31T14:50:54;11.00;99.90
37268;DHT22;23154;52.542;13.362;2023-10-31T14:53:21;11.00;99.90
37268;DHT22;23154;52.542;13.362;2023-10-31T14:55:48;10.90;99.90
37268;DHT22;23154;52.542;13.362;2023-10-31T14:58:14;10.90;99.90
37268;DHT22;23154;52.542;13.362;2023-10-31T15:00:39;10.80;99.90
37268;DHT22;23154;52.542;13.362;2023-10-31T15:03:05;10.80;99.90
37268;DHT22;23154;52.542;13.362;2023-10-31T15:05:31;10.80;99.90
37268;DHT22;23154;52.542;13.362;2023-10-31T15:07:57;10.70;99.90
37268;DHT22;23154;52.542;13.362;2023-10-31T15:10:27;10.80;99.90
37268;DHT22;23154;52.542;13.362;2023-10-31T15:12:54;10.80;99.90
37268;DHT22;23154;52.542;13.362;2023-10-31T15:15:20;10.70;99.90